createdAt,value
2022-08-10T00:00:59.261Z,25.20
2022-08-10T00:03:27.328Z,24.90
2022-08-10T00:05:56.700Z,24.70
2022-08-10T00:08:26.120Z,24.70
2022-08-10T00:10:54.282Z,24.50
2022-08-10T00:13:22.425Z,24.70
2022-08-10T00:15:53.933Z,24.60
2022-08-10T00:18:34.831Z,24.80
2022-08-10T00:21:05.437Z,24.50
2022-08-10T00:23:33.582Z,24.80
2022-08-10T00:26:01.728Z,24.50
2022-08-10T00:28:29.766Z,24.40
2022-08-10T00:30:57.828Z,24.30
2022-08-10T00:33:27.240Z,24.40
2022-08-10T00:35:55.344Z,24.20
2022-08-10T00:38:23.524Z,24.20
2022-08-10T00:40:51.633Z,24.40
2022-08-10T00:43:23.263Z,24.30
2022-08-10T00:45:59.258Z,24.20
2022-08-10T00:48:30.031Z,24.50
2022-08-10T00:50:58.732Z,24.30
2022-08-10T00:53:27.133Z,24.40
2022-08-10T00:56:35.262Z,24.40
2022-08-10T00:58:43.365Z,24.30
2022-08-10T01:02:09.698Z,24.50
2022-08-10T01:04:36.553Z,24.50
2022-08-10T01:06:55.067Z,24.40
2022-08-10T01:09:27.237Z,24.10
2022-08-10T01:12:37.588Z,24.20
2022-08-10T01:14:48.609Z,24.20
2022-08-10T01:17:18.597Z,23.80
2022-08-10T01:19:54.801Z,23.80
2022-08-10T01:22:39.328Z,23.90
2022-08-10T01:26:12.445Z,24.00
2022-08-10T01:28:55.921Z,23.70
2022-08-10T01:31:27.863Z,24.10
2022-08-10T01:34:02.597Z,24.20
2022-08-10T01:36:32.862Z,24.20
2022-08-10T01:39:03.515Z,24.20
2022-08-10T01:41:43.973Z,24.30
2022-08-10T01:44:15.697Z,23.80
2022-08-10T01:46:48.020Z,23.70
2022-08-10T01:49:19.432Z,23.80
2022-08-10T01:51:50.808Z,23.80
2022-08-10T01:54:21.127Z,23.80
2022-08-10T01:56:51.008Z,23.80
2022-08-10T01:59:22.168Z,24.00
2022-08-10T02:01:52.919Z,23.90
2022-08-10T02:04:21.302Z,23.70
2022-08-10T02:06:51.316Z,23.50
2022-08-10T02:09:21.214Z,23.50
2022-08-10T02:12:06.706Z,23.40
2022-08-10T02:14:37.023Z,23.60
2022-08-10T02:17:09.179Z,23.60
2022-08-10T02:19:58.229Z,23.50
2022-08-10T02:22:36.039Z,23.30
2022-08-10T02:25:08.247Z,23.50
2022-08-10T02:27:36.558Z,23.10
2022-08-10T02:30:05.264Z,23.10
2022-08-10T02:32:52.851Z,22.70
2022-08-10T02:35:22.393Z,22.50
2022-08-10T02:37:52.156Z,22.40
2022-08-10T02:45:12.728Z,22.90
2022-08-10T02:45:19.469Z,22.50
2022-08-10T02:46:02.549Z,22.80
2022-08-10T02:48:35.828Z,22.80
2022-08-10T02:51:06.649Z,23.10
2022-08-10T02:53:49.548Z,23.10
2022-08-10T02:56:26.096Z,23.00
2022-08-10T02:58:57.666Z,23.30
2022-08-10T03:01:35.719Z,23.50
2022-08-10T03:04:06.257Z,23.20
2022-08-10T03:06:36.048Z,23.30
2022-08-10T03:09:05.024Z,23.40
2022-08-10T03:12:36.472Z,23.40
2022-08-10T03:14:22.441Z,23.30
2022-08-10T03:16:50.512Z,23.00
2022-08-10T03:20:34.222Z,23.00
2022-08-10T03:22:08.647Z,22.90
2022-08-10T03:24:36.850Z,23.00
2022-08-10T03:27:05.096Z,22.70
2022-08-10T03:30:30.051Z,22.90
2022-08-10T03:32:21.276Z,22.80
2022-08-10T03:34:50.743Z,23.00
2022-08-10T03:37:19.925Z,23.00
2022-08-10T03:39:48.056Z,23.10
2022-08-10T03:42:16.174Z,23.10
2022-08-10T03:44:47.360Z,22.80
2022-08-10T03:47:18.659Z,22.70
2022-08-10T03:49:46.947Z,22.60
2022-08-10T03:52:17.166Z,22.70
2022-08-10T03:54:45.235Z,22.80
2022-08-10T03:57:13.317Z,22.40
2022-08-10T03:59:41.436Z,22.50
2022-08-10T04:02:47.141Z,22.80
2022-08-10T04:04:57.577Z,22.30
2022-08-10T04:07:27.001Z,22.70
2022-08-10T04:09:56.474Z,22.70
2022-08-10T04:12:27.092Z,22.30
2022-08-10T04:14:55.186Z,22.60
2022-08-10T04:18:04.907Z,22.50
2022-08-10T04:20:16.520Z,22.80
2022-08-10T04:22:46.146Z,22.90
2022-08-10T04:25:14.422Z,22.70
2022-08-10T04:27:42.528Z,22.80
2022-08-10T04:30:12.345Z,22.90
2022-08-10T04:32:41.091Z,22.80
2022-08-10T04:35:10.946Z,22.80
2022-08-10T04:37:46.836Z,22.80
2022-08-10T04:40:28.445Z,23.00
2022-08-10T04:43:02.156Z,22.80
2022-08-10T04:45:50.074Z,22.80
2022-08-10T04:48:40.360Z,22.40
2022-08-10T04:51:17.734Z,22.70
2022-08-10T04:54:03.317Z,22.30
2022-08-10T04:56:40.180Z,22.30
2022-08-10T04:59:10.939Z,22.30
2022-08-10T05:02:28.631Z,22.20
2022-08-10T05:04:35.056Z,22.30
2022-08-10T05:07:07.873Z,22.60
2022-08-10T05:10:04.971Z,22.70
2022-08-10T05:12:25.416Z,22.60
2022-08-10T05:14:54.557Z,22.70
2022-08-10T05:17:23.034Z,22.80
2022-08-10T05:20:03.488Z,22.80
2022-08-10T05:22:35.149Z,23.20
2022-08-10T05:25:03.538Z,23.20
2022-08-10T05:27:33.629Z,23.20
2022-08-10T05:30:03.694Z,23.30
2022-08-10T05:32:55.580Z,23.50
2022-08-10T05:35:21.833Z,23.60
2022-08-10T05:38:08.860Z,23.80
2022-08-10T05:40:39.345Z,23.70
2022-08-10T05:43:08.785Z,23.80
2022-08-10T05:46:19.940Z,23.80
2022-08-10T05:48:55.623Z,24.10
2022-08-10T05:51:13.084Z,24.30
2022-08-10T05:54:00.854Z,24.40
2022-08-10T05:56:55.979Z,24.30
2022-08-10T06:00:31.007Z,24.30
2022-08-10T06:02:30.876Z,24.60
2022-08-10T06:04:54.896Z,24.80
2022-08-10T06:07:23.227Z,24.50
2022-08-10T06:09:58.967Z,24.80
2022-08-10T06:12:30.313Z,24.90
2022-08-10T06:15:05.353Z,24.90
2022-08-10T06:17:34.240Z,25.00
2022-08-10T06:20:02.451Z,25.50
2022-08-10T06:22:32.419Z,25.30
2022-08-10T06:25:27.346Z,25.60
2022-08-10T06:27:49.122Z,25.50
2022-08-10T06:30:20.127Z,25.60
2022-08-10T06:32:49.339Z,25.70
2022-08-10T06:35:17.560Z,26.10
2022-08-10T06:37:51.341Z,26.00
2022-08-10T06:40:20.252Z,26.10
2022-08-10T06:42:49.423Z,26.20
2022-08-10T06:45:20.149Z,26.30
2022-08-10T06:47:50.232Z,26.50
2022-08-10T06:50:45.565Z,26.60
2022-08-10T06:53:09.752Z,26.70
2022-08-10T06:55:49.665Z,26.80
2022-08-10T06:58:23.674Z,27.40
2022-08-10T07:00:56.331Z,26.80
2022-08-10T07:03:27.373Z,27.10
2022-08-10T07:05:55.485Z,27.10
2022-08-10T07:08:23.623Z,27.60
2022-08-10T07:10:51.838Z,27.00
2022-08-10T07:14:14.271Z,28.10
2022-08-10T07:16:12.269Z,27.40
2022-08-10T07:18:40.504Z,28.30
2022-08-10T07:21:08.586Z,27.90
2022-08-10T07:23:58.775Z,28.00
2022-08-10T07:26:26.754Z,28.10
2022-08-10T07:28:55.953Z,28.30
2022-08-10T07:31:55.040Z,28.60
2022-08-10T07:34:28.455Z,28.90
2022-08-10T07:37:00.179Z,29.30
2022-08-10T07:40:02.189Z,29.20
2022-08-10T07:42:18.317Z,29.80
2022-08-10T07:44:46.421Z,28.50
2022-08-10T07:47:18.684Z,29.30
2022-08-10T07:50:08.723Z,29.30
2022-08-10T07:52:37.797Z,28.70
2022-08-10T07:55:06.952Z,29.50
2022-08-10T07:57:39.997Z,30.00
2022-08-10T08:00:09.910Z,30.30
2022-08-10T08:02:41.310Z,30.30
2022-08-10T08:05:12.262Z,29.60
2022-08-10T08:08:00.346Z,29.80
2022-08-10T08:10:29.378Z,30.30
2022-08-10T08:12:58.009Z,30.70
2022-08-10T08:16:18.739Z,30.60
2022-08-10T08:18:16.054Z,30.60
2022-08-10T08:20:46.761Z,30.70
2022-08-10T08:24:30.741Z,30.90
2022-08-10T08:26:06.227Z,30.50
2022-08-10T08:28:34.658Z,31.80
2022-08-10T08:31:02.770Z,31.20
2022-08-10T08:33:42.477Z,30.50
2022-08-10T08:36:11.033Z,30.90
2022-08-10T08:38:39.227Z,30.70
2022-08-10T08:41:17.991Z,31.20
2022-08-10T08:43:50.675Z,31.20
2022-08-10T08:46:59.532Z,31.60
2022-08-10T08:50:08.951Z,31.90
2022-08-10T08:52:45.408Z,31.50
2022-08-10T08:56:03.885Z,30.80
2022-08-10T08:58:40.182Z,30.90
2022-08-10T09:01:19.857Z,31.70
2022-08-10T09:04:05.819Z,32.70
2022-08-10T09:07:03.444Z,32.10
2022-08-10T09:09:38.771Z,31.40
2022-08-10T09:12:15.095Z,31.90
2022-08-10T09:14:49.340Z,32.10
2022-08-10T09:17:18.890Z,31.80
2022-08-10T09:19:49.742Z,31.50
2022-08-10T09:22:26.146Z,31.90
2022-08-10T09:24:58.056Z,32.60
2022-08-10T09:27:32.317Z,32.60
2022-08-10T09:30:05.504Z,32.50
2022-08-10T09:36:15.193Z,32.30
2022-08-10T09:36:28.203Z,33.20
2022-08-10T09:38:26.471Z,32.00
2022-08-10T09:41:04.010Z,32.80
2022-08-10T09:43:43.573Z,32.50
2022-08-10T09:46:17.751Z,33.70
2022-08-10T09:48:48.728Z,33.30
2022-08-10T09:51:44.825Z,33.50
2022-08-10T09:54:23.179Z,32.90
2022-08-10T09:57:06.962Z,32.40
2022-08-10T10:00:00.077Z,32.90
2022-08-10T10:02:36.401Z,32.30
2022-08-10T10:05:09.115Z,32.30
2022-08-10T10:07:39.669Z,32.50
2022-08-10T10:10:11.970Z,33.20
2022-08-10T10:12:44.011Z,33.10
2022-08-10T10:15:24.414Z,31.80
2022-08-10T10:18:25.434Z,32.40
2022-08-10T10:21:01.876Z,31.90
2022-08-10T10:23:36.545Z,32.80
2022-08-10T10:26:18.319Z,32.80
2022-08-10T10:31:45.700Z,32.90
2022-08-10T10:34:17.460Z,33.30
2022-08-10T10:36:46.202Z,33.40
2022-08-10T10:39:14.828Z,33.10
2022-08-10T10:42:03.104Z,33.80
2022-08-10T10:44:53.889Z,34.00
2022-08-10T10:47:37.956Z,33.80
2022-08-10T10:50:08.000Z,33.50
2022-08-10T10:52:44.076Z,34.00
2022-08-10T10:55:16.562Z,33.40
2022-08-10T10:57:59.907Z,34.00
2022-08-10T11:00:31.237Z,34.30
2022-08-10T11:03:17.737Z,34.50
2022-08-10T11:05:48.875Z,34.00
2022-08-10T11:08:18.415Z,34.30
2022-08-10T11:10:48.444Z,33.80
2022-08-10T11:14:27.363Z,33.60
2022-08-10T11:16:26.128Z,34.20
2022-08-10T11:18:59.447Z,34.00
2022-08-10T11:21:41.849Z,34.50
2022-08-10T11:24:46.817Z,34.60
2022-08-10T11:27:06.811Z,34.90
2022-08-10T11:29:45.298Z,34.70
2022-08-10T11:32:21.351Z,34.30
2022-08-10T11:35:10.273Z,32.50
2022-08-10T11:38:34.435Z,34.30
2022-08-10T11:40:33.148Z,34.70
2022-08-10T11:43:08.921Z,34.30
2022-08-10T11:45:52.375Z,34.60
2022-08-10T11:48:53.602Z,35.50
2022-08-10T11:51:20.524Z,34.40
2022-08-10T11:53:51.400Z,34.70
2022-08-10T11:56:25.628Z,33.60
2022-08-10T11:59:17.108Z,34.70
2022-08-10T12:01:47.284Z,34.60
2022-08-10T12:04:15.551Z,34.00
2022-08-10T12:06:59.090Z,33.80
2022-08-10T12:10:09.589Z,34.90
2022-08-10T12:12:15.251Z,34.80
2022-08-10T12:14:47.777Z,34.30
2022-08-10T12:17:20.015Z,34.70
2022-08-10T12:20:01.875Z,35.00
2022-08-10T12:22:32.999Z,34.90
2022-08-10T12:25:03.029Z,35.60
2022-08-10T12:27:32.595Z,35.00
2022-08-10T12:30:03.349Z,34.30
2022-08-10T12:32:49.405Z,34.70
2022-08-10T12:35:26.377Z,35.10
2022-08-10T12:38:08.129Z,35.20
2022-08-10T12:40:41.710Z,34.90
2022-08-10T12:44:05.644Z,34.70
2022-08-10T12:46:14.878Z,35.20
2022-08-10T12:48:49.457Z,35.90
2022-08-10T12:51:22.205Z,36.20
2022-08-10T12:53:53.512Z,35.00
2022-08-10T12:56:24.506Z,35.10
2022-08-10T12:59:00.086Z,35.60
2022-08-10T13:02:06.987Z,35.40
2022-08-10T13:04:26.944Z,35.40
2022-08-10T13:06:55.011Z,34.70
2022-08-10T13:09:23.233Z,34.90
2022-08-10T13:12:36.969Z,35.50
2022-08-10T13:14:49.097Z,35.30
2022-08-10T13:17:22.227Z,35.70
2022-08-10T13:19:54.654Z,34.60
2022-08-10T13:22:24.620Z,35.60
2022-08-10T13:24:55.831Z,35.50
2022-08-10T13:28:00.763Z,36.20
2022-08-10T13:30:14.381Z,36.40
2022-08-10T13:32:42.651Z,35.80
2022-08-10T13:35:13.429Z,35.90
2022-08-10T13:37:44.015Z,35.80
2022-08-10T13:40:12.839Z,36.10
2022-08-10T13:42:41.688Z,35.00
2022-08-10T13:45:11.193Z,35.50
2022-08-10T13:47:49.207Z,35.00
2022-08-10T13:50:35.660Z,34.80
2022-08-10T13:53:13.250Z,34.50
2022-08-10T13:55:54.334Z,33.80
2022-08-10T13:58:25.456Z,35.00
2022-08-10T14:00:53.710Z,35.70
2022-08-10T14:03:21.841Z,34.70
2022-08-10T14:05:53.541Z,34.30
2022-08-10T14:08:23.086Z,35.00
2022-08-10T14:11:08.683Z,35.20
2022-08-10T14:13:41.168Z,35.40
2022-08-10T14:16:10.041Z,34.30
2022-08-10T14:18:38.551Z,34.90
2022-08-10T14:21:08.049Z,35.00
2022-08-10T14:23:40.906Z,35.20
2022-08-10T14:26:09.823Z,35.10
2022-08-10T14:28:40.413Z,34.50
2022-08-10T14:31:09.865Z,34.30
2022-08-10T14:33:38.056Z,33.80
2022-08-10T14:36:18.940Z,34.30
2022-08-10T14:38:51.612Z,34.10
2022-08-10T14:42:03.193Z,34.40
2022-08-10T14:44:14.302Z,33.50
2022-08-10T14:46:44.994Z,34.90
2022-08-10T14:49:25.503Z,35.30
2022-08-10T14:52:00.589Z,34.80
2022-08-10T14:54:29.846Z,35.30
2022-08-10T14:56:58.330Z,35.10
2022-08-10T14:59:45.918Z,35.00
2022-08-10T15:02:40.304Z,34.90
2022-08-10T15:05:09.041Z,35.60
2022-08-10T15:07:39.071Z,35.40
2022-08-10T15:10:08.512Z,35.40
2022-08-10T15:12:37.281Z,35.60
2022-08-10T15:15:08.468Z,35.60
2022-08-10T15:17:39.722Z,35.30
2022-08-10T15:20:14.737Z,35.50
2022-08-10T15:22:47.693Z,35.10
2022-08-10T15:25:24.964Z,34.60
2022-08-10T15:27:56.117Z,34.70
2022-08-10T15:30:31.419Z,34.50
2022-08-10T15:33:21.229Z,34.60
2022-08-10T15:36:25.616Z,34.50
2022-08-10T15:38:59.287Z,34.40
2022-08-10T15:41:58.762Z,34.80
2022-08-10T15:44:39.427Z,34.90
2022-08-10T15:47:10.453Z,34.90
2022-08-10T15:49:45.036Z,34.90
2022-08-10T15:52:39.643Z,35.10
2022-08-10T15:55:44.291Z,35.20
2022-08-10T15:58:02.319Z,34.80
2022-08-10T16:00:30.442Z,35.30
2022-08-10T16:03:00.481Z,34.80
2022-08-10T16:06:01.034Z,35.30
2022-08-10T16:08:22.089Z,35.10
2022-08-10T16:10:55.343Z,34.30
2022-08-10T16:13:50.317Z,34.20
2022-08-10T16:16:13.601Z,34.10
2022-08-10T16:18:43.388Z,34.30
2022-08-10T16:21:15.270Z,35.00
2022-08-10T16:23:45.090Z,34.50
2022-08-10T16:26:36.176Z,34.40
2022-08-10T16:29:06.411Z,34.90
2022-08-10T16:31:35.812Z,33.80
2022-08-10T16:34:06.128Z,34.20
2022-08-10T16:36:40.803Z,34.30
2022-08-10T16:39:15.718Z,34.10
2022-08-10T16:42:04.955Z,34.70
2022-08-10T16:44:37.442Z,35.20
2022-08-10T16:47:05.650Z,34.80
2022-08-10T16:49:37.095Z,34.20
2022-08-10T16:52:05.522Z,34.40
2022-08-10T16:54:33.582Z,33.90
2022-08-10T16:57:06.380Z,34.50
2022-08-10T16:59:36.873Z,34.80
2022-08-10T17:02:05.251Z,34.30
2022-08-10T17:04:33.614Z,33.80
2022-08-10T17:07:04.113Z,33.80
2022-08-10T17:09:33.131Z,33.50
2022-08-10T17:12:04.660Z,33.90
2022-08-10T17:14:34.128Z,34.10
2022-08-10T17:17:06.550Z,34.20
2022-08-10T17:19:36.948Z,33.80
2022-08-10T17:22:07.921Z,33.80
2022-08-10T17:24:36.843Z,33.80
2022-08-10T17:28:04.597Z,33.40
2022-08-10T17:30:04.598Z,33.40
2022-08-10T17:32:44.148Z,33.50
2022-08-10T17:35:14.199Z,33.30
2022-08-10T17:37:46.141Z,33.00
2022-08-10T17:40:16.183Z,33.10
2022-08-10T17:42:46.409Z,33.40
2022-08-10T17:45:47.640Z,32.90
2022-08-10T17:48:09.981Z,33.20
2022-08-10T17:50:38.774Z,33.60
2022-08-10T17:53:08.415Z,33.00
2022-08-10T17:55:37.627Z,33.50
2022-08-10T17:58:11.694Z,33.10
2022-08-10T18:00:43.952Z,32.90
2022-08-10T18:03:15.757Z,33.00
2022-08-10T18:05:55.886Z,33.10
2022-08-10T18:08:26.512Z,33.00
2022-08-10T18:10:57.295Z,32.60
2022-08-10T18:13:26.020Z,32.80
2022-08-10T18:15:56.221Z,32.80
2022-08-10T18:18:25.413Z,32.80
2022-08-10T18:20:55.043Z,32.80
2022-08-10T18:23:26.080Z,32.30
2022-08-10T18:25:58.968Z,32.50
2022-08-10T18:28:27.025Z,32.70
2022-08-10T18:30:56.499Z,32.50
2022-08-10T18:33:27.462Z,32.30
2022-08-10T18:35:55.564Z,32.40
2022-08-10T18:38:23.685Z,32.20
2022-08-10T18:40:53.889Z,32.00
2022-08-10T18:44:07.263Z,32.00
2022-08-10T18:46:17.513Z,31.80
2022-08-10T18:48:48.415Z,32.30
2022-08-10T18:51:18.296Z,32.30
2022-08-10T18:53:48.314Z,32.00
2022-08-10T18:56:24.423Z,31.80
2022-08-10T18:59:02.681Z,31.70
2022-08-10T19:02:06.526Z,31.20
2022-08-10T19:04:44.442Z,31.20
2022-08-10T19:07:46.604Z,31.30
2022-08-10T19:10:18.988Z,31.00
2022-08-10T19:12:51.835Z,30.10
2022-08-10T19:15:24.915Z,29.30
2022-08-10T19:18:08.342Z,29.20
2022-08-10T19:20:39.235Z,28.90
2022-08-10T19:23:15.374Z,28.50
2022-08-10T19:26:42.502Z,28.50
2022-08-10T19:28:42.344Z,28.20
2022-08-10T19:31:13.531Z,28.10
2022-08-10T19:33:52.614Z,27.60
2022-08-10T19:36:45.708Z,27.60
2022-08-10T19:39:18.682Z,27.20
2022-08-10T19:41:54.539Z,27.40
2022-08-10T19:44:26.870Z,27.40
2022-08-10T19:46:57.922Z,26.50
2022-08-10T19:49:32.355Z,26.30
2022-08-10T19:52:11.665Z,26.30
2022-08-10T19:54:45.388Z,26.60
2022-08-10T19:57:19.492Z,27.30
2022-08-10T20:00:15.740Z,27.30
2022-08-10T20:02:48.173Z,27.20
2022-08-10T20:05:24.269Z,27.10
2022-08-10T20:07:57.293Z,26.30
2022-08-10T20:10:26.803Z,26.00
2022-08-10T20:13:01.599Z,26.80
2022-08-10T20:15:41.651Z,27.00
2022-08-10T20:18:13.936Z,27.00
2022-08-10T20:20:50.609Z,26.80
2022-08-10T20:23:20.943Z,25.80
2022-08-10T20:25:50.546Z,25.80
2022-08-10T20:28:21.098Z,26.30
2022-08-10T20:30:53.020Z,26.30
2022-08-10T20:33:27.328Z,26.40
2022-08-10T20:36:01.342Z,26.10
2022-08-10T20:38:34.247Z,24.50
2022-08-10T20:41:19.545Z,24.30
2022-08-10T20:43:53.623Z,24.60
2022-08-10T20:46:27.785Z,25.30
2022-08-10T20:48:58.123Z,25.70
2022-08-10T20:51:58.016Z,25.20
2022-08-10T20:54:17.285Z,24.70
2022-08-10T20:56:52.296Z,23.90
2022-08-10T20:59:33.637Z,23.80
2022-08-10T21:02:20.304Z,23.80
2022-08-10T21:04:55.213Z,23.30
2022-08-10T21:08:01.186Z,23.20
2022-08-10T21:10:39.268Z,23.40
2022-08-10T21:13:16.204Z,23.50
2022-08-10T21:15:55.608Z,23.20
2022-08-10T21:18:44.093Z,22.80
2022-08-10T21:21:37.671Z,23.00
2022-08-10T21:25:42.065Z,22.90
2022-08-10T21:27:08.212Z,23.50
2022-08-10T21:29:54.034Z,23.30
2022-08-10T21:32:29.715Z,23.40
2022-08-10T21:35:08.633Z,22.80
2022-08-10T21:37:41.619Z,23.20
2022-08-10T21:40:34.555Z,23.40
2022-08-10T21:43:32.090Z,23.70
2022-08-10T21:46:33.044Z,23.60
2022-08-10T21:49:22.710Z,23.30
2022-08-10T21:52:12.680Z,23.60
2022-08-10T21:55:05.856Z,23.30
2022-08-10T21:58:04.826Z,23.30
2022-08-10T22:00:50.259Z,23.20
2022-08-10T22:03:39.479Z,23.00
2022-08-10T22:06:25.932Z,23.00
2022-08-10T22:09:14.730Z,23.20
2022-08-10T22:12:01.871Z,23.00
2022-08-10T22:14:51.987Z,23.20
2022-08-10T22:18:01.103Z,23.00
2022-08-10T22:20:45.170Z,23.00
2022-08-10T22:23:56.939Z,23.10
2022-08-10T22:26:56.619Z,22.80
2022-08-10T22:29:50.690Z,23.20
2022-08-10T22:32:43.922Z,23.00
2022-08-10T22:35:54.092Z,22.80
2022-08-10T22:38:49.908Z,22.70
2022-08-10T22:41:52.977Z,23.00
2022-08-10T22:44:38.354Z,23.50
2022-08-10T22:47:25.608Z,24.30
2022-08-10T22:49:52.620Z,24.50
2022-08-10T22:52:26.066Z,24.50
2022-08-10T22:55:14.014Z,24.50
2022-08-10T22:58:14.650Z,24.30
2022-08-10T23:00:42.873Z,24.50
2022-08-10T23:03:16.477Z,24.50
2022-08-10T23:05:54.260Z,24.30
2022-08-10T23:08:30.558Z,24.30
2022-08-10T23:11:01.765Z,24.30
2022-08-10T23:13:36.187Z,24.20
2022-08-10T23:16:23.582Z,23.90
2022-08-10T23:19:10.979Z,23.60
2022-08-10T23:22:03.183Z,23.70
2022-08-10T23:24:34.355Z,23.60
2022-08-10T23:27:13.067Z,23.60
2022-08-10T23:30:09.370Z,23.20
2022-08-10T23:32:40.173Z,23.30
2022-08-10T23:36:30.008Z,23.10
2022-08-10T23:37:59.450Z,23.00
2022-08-10T23:40:27.496Z,23.30
2022-08-10T23:42:55.572Z,23.10
2022-08-10T23:45:24.269Z,23.50
2022-08-10T23:47:53.953Z,22.80
2022-08-10T23:50:23.361Z,22.80
2022-08-10T23:52:52.643Z,23.10
2022-08-10T23:55:25.352Z,23.00
2022-08-10T23:57:57.133Z,23.30
